Time;durP1;ratioP1;P1;durP2;ratioP2;P2;SDS_P1;SDS_P2;PMS_P1;PMS_P2;Temp;Humidity;BMP_temperature;BMP_pressure;BME280_temperature;BME280_humidity;BME280_pressure;Samples;Min_cycle;Max_cycle;Signal;HPM_P1;HPM_P2
2023/01/08 00:01:26;;;;;;;21.45;15.75;;;23.40;49.60;;;;;;6076745;28;83279;-67
2023/01/08 00:04:26;;;;;;;19.35;14.30;;;23.40;49.40;;;;;;6077077;28;83140;-59
2023/01/08 00:07:27;;;;;;;20.33;14.25;;;23.40;49.10;;;;;;6067289;28;84105;-58
2023/01/08 00:10:27;;;;;;;18.58;13.57;;;23.30;49.50;;;;;;6053624;28;83013;-59
2023/01/08 00:13:28;;;;;;;21.10;14.85;;;23.30;49.50;;;;;;6071366;28;83453;-59
2023/01/08 00:16:28;;;;;;;19.52;14.38;;;23.30;49.40;;;;;;6053521;28;83912;-58
2023/01/08 00:19:30;;;;;;;21.60;14.60;;;23.30;49.30;;;;;;6054652;28;83906;-59
2023/01/08 00:22:30;;;;;;;19.90;15.10;;;23.30;49.70;;;;;;6053469;28;84314;-67
2023/01/08 00:25:31;;;;;;;22.08;15.05;;;23.30;49.10;;;;;;6054633;28;87348;-68
2023/01/08 00:28:31;;;;;;;19.45;14.43;;;23.30;48.90;;;;;;6049139;28;83250;-67
2023/01/08 00:31:32;;;;;;;19.30;14.73;;;23.30;49.00;;;;;;6050194;28;83139;-69
2023/01/08 00:34:32;;;;;;;22.25;14.80;;;23.30;48.80;;;;;;6059142;28;83313;-67
2023/01/08 00:37:33;;;;;;;20.38;15.73;;;23.30;48.70;;;;;;6057396;28;83234;-68
2023/01/08 00:40:33;;;;;;;22.02;16.00;;;23.30;48.70;;;;;;6063266;28;83630;-69
2023/01/08 00:43:34;;;;;;;22.42;15.93;;;23.30;48.50;;;;;;6051849;28;84240;-67
2023/01/08 00:46:34;;;;;;;21.35;16.05;;;23.30;48.50;;;;;;6053146;28;83186;-67
2023/01/08 00:49:35;;;;;;;22.23;15.70;;;23.30;48.50;;;;;;6059947;28;85918;-67
2023/01/08 00:52:36;;;;;;;25.60;15.98;;;23.30;48.50;;;;;;6050015;28;84540;-68
2023/01/08 00:55:36;;;;;;;21.75;15.73;;;23.30;48.40;;;;;;6064481;28;84346;-68
2023/01/08 00:58:37;;;;;;;20.42;14.95;;;23.30;48.30;;;;;;6059496;28;83435;-67
2023/01/08 01:01:38;;;;;;;20.52;15.23;;;23.30;48.10;;;;;;6050939;28;84732;-65
2023/01/08 01:04:38;;;;;;;20.35;15.50;;;23.30;48.00;;;;;;6062709;28;83124;-66
2023/01/08 01:07:41;;;;;;;21.17;14.90;;;23.30;48.10;;;;;;6057475;28;83221;-66
2023/01/08 01:10:41;;;;;;;19.55;14.75;;;23.30;47.90;;;;;;6060705;28;82935;-68
2023/01/08 01:13:42;;;;;;;21.00;15.80;;;23.30;47.40;;;;;;6072292;28;83726;-67
2023/01/08 01:16:42;;;;;;;20.58;15.30;;;23.30;47.80;;;;;;6068567;28;84014;-55
2023/01/08 01:19:43;;;;;;;18.65;14.57;;;23.30;48.20;;;;;;6061833;28;83152;-55
2023/01/08 01:22:43;;;;;;;21.42;15.82;;;23.30;47.20;;;;;;6079660;28;83132;-56
2023/01/08 01:25:44;;;;;;;19.27;14.38;;;23.30;48.10;;;;;;6085106;28;84987;-59
2023/01/08 01:28:45;;;;;;;22.83;15.30;;;23.30;48.00;;;;;;6111647;28;83639;-55
2023/01/08 01:31:45;;;;;;;20.27;15.07;;;23.30;47.50;;;;;;6077963;28;83004;-53
2023/01/08 01:34:46;;;;;;;19.85;15.38;;;23.30;47.10;;;;;;6084707;28;90697;-72
2023/01/08 01:37:46;;;;;;;21.15;15.35;;;23.30;47.90;;;;;;6088406;28;83008;-71
2023/01/08 01:40:47;;;;;;;22.95;16.17;;;23.30;47.20;;;;;;6083600;28;83899;-70
2023/01/08 01:43:47;;;;;;;21.30;15.05;;;23.30;47.30;;;;;;6066942;28;83236;-73
2023/01/08 01:46:48;;;;;;;22.67;15.45;;;23.30;47.30;;;;;;6090898;28;84770;-75
2023/01/08 01:49:48;;;;;;;21.67;14.85;;;23.30;47.00;;;;;;6078729;28;83341;-71
2023/01/08 01:52:49;;;;;;;23.02;15.07;;;23.30;47.50;;;;;;6078801;28;84128;-57
2023/01/08 01:55:49;;;;;;;19.67;15.00;;;23.30;47.20;;;;;;6076807;28;86063;-56
2023/01/08 01:58:50;;;;;;;20.17;14.05;;;23.30;46.60;;;;;;6078775;28;83288;-55
2023/01/08 02:01:50;;;;;;;21.08;14.82;;;23.20;46.70;;;;;;6077720;28;83536;-55
2023/01/08 02:04:51;;;;;;;17.08;13.20;;;23.20;47.00;;;;;;6079830;28;83199;-58
2023/01/08 02:07:51;;;;;;;20.13;14.60;;;23.30;46.90;;;;;;6067298;28;83587;-55
2023/01/08 02:10:52;;;;;;;22.48;15.43;;;23.20;46.40;;;;;;6065061;28;83252;-70
2023/01/08 02:13:52;;;;;;;22.02;15.35;;;23.30;46.70;;;;;;6070448;28;83002;-70
2023/01/08 02:16:53;;;;;;;18.48;13.90;;;23.30;46.50;;;;;;6058024;28;83286;-71
2023/01/08 02:19:53;;;;;;;18.92;14.27;;;23.20;46.70;;;;;;6056039;28;83202;-70
2023/01/08 02:22:54;;;;;;;20.77;14.57;;;23.20;47.00;;;;;;6054134;28;83247;-72
2023/01/08 02:25:55;;;;;;;21.63;14.13;;;23.20;46.60;;;;;;6055062;28;86004;-73
2023/01/08 02:28:55;;;;;;;19.17;14.95;;;23.20;46.00;;;;;;6082628;28;84919;-70
2023/01/08 02:31:56;;;;;;;20.67;15.07;;;23.20;46.40;;;;;;6059853;28;90342;-70
2023/01/08 02:34:56;;;;;;;20.05;13.88;;;23.20;46.40;;;;;;6056593;28;83359;-69
2023/01/08 02:37:57;;;;;;;23.63;15.35;;;23.20;46.40;;;;;;6056316;28;83190;-67
2023/01/08 02:40:57;;;;;;;20.48;14.00;;;23.20;46.40;;;;;;6054026;28;84347;-64
2023/01/08 02:43:58;;;;;;;18.70;13.85;;;23.20;46.80;;;;;;6053854;28;85972;-65
2023/01/08 02:46:58;;;;;;;22.65;14.02;;;23.20;46.50;;;;;;6067913;28;87651;-68
2023/01/08 02:49:59;;;;;;;20.30;13.95;;;23.20;46.70;;;;;;6056058;28;84721;-68
2023/01/08 02:52:59;;;;;;;19.95;14.43;;;23.20;45.90;;;;;;6074185;28;84461;-71
2023/01/08 02:56:00;;;;;;;20.10;13.45;;;23.20;46.10;;;;;;6072625;28;84009;-68
2023/01/08 02:59:00;;;;;;;19.85;14.25;;;23.20;46.60;;;;;;6055620;28;84300;-69
2023/01/08 03:02:01;;;;;;;21.45;15.02;;;23.20;46.40;;;;;;6073766;28;84003;-70
2023/01/08 03:05:01;;;;;;;18.85;13.52;;;23.20;46.20;;;;;;6066581;28;83129;-73
2023/01/08 03:08:02;;;;;;;19.30;13.02;;;23.20;46.30;;;;;;6060731;28;83632;-55
2023/01/08 03:11:02;;;;;;;18.88;13.73;;;23.20;46.10;;;;;;6076592;28;83246;-54
2023/01/08 03:14:03;;;;;;;20.55;13.50;;;23.20;46.20;;;;;;6067210;28;87086;-55
2023/01/08 03:17:04;;;;;;;19.60;13.52;;;23.20;45.80;;;;;;6066244;28;83179;-55
2023/01/08 03:20:04;;;;;;;19.23;13.07;;;23.20;46.70;;;;;;6064528;28;83031;-57
2023/01/08 03:23:05;;;;;;;19.77;13.27;;;23.20;46.20;;;;;;6071631;28;83721;-55
2023/01/08 03:26:05;;;;;;;22.45;14.32;;;23.20;46.70;;;;;;6062062;28;84035;-55
2023/01/08 03:29:06;;;;;;;23.13;14.25;;;23.10;45.80;;;;;;6062287;28;84454;-53
2023/01/08 03:32:06;;;;;;;18.15;13.18;;;23.20;45.80;;;;;;6063276;28;85624;-54
2023/01/08 03:35:07;;;;;;;18.70;13.20;;;23.20;45.80;;;;;;6068877;28;83266;-57
2023/01/08 03:38:07;;;;;;;18.02;12.50;;;23.10;45.90;;;;;;6064814;28;83210;-56
2023/01/08 03:41:08;;;;;;;16.92;12.52;;;23.10;45.70;;;;;;6063900;28;83656;-57
2023/01/08 03:44:08;;;;;;;17.98;12.90;;;23.10;45.40;;;;;;6054877;28;83375;-66
2023/01/08 03:47:09;;;;;;;17.50;12.02;;;23.10;45.40;;;;;;6053863;28;83137;-66
2023/01/08 03:50:09;;;;;;;16.98;11.70;;;23.10;45.20;;;;;;6056593;28;83108;-65
2023/01/08 03:53:10;;;;;;;17.08;12.95;;;23.10;45.20;;;;;;6061258;28;83483;-65
2023/01/08 03:56:10;;;;;;;17.85;12.43;;;23.10;45.00;;;;;;6058433;28;83595;-68
2023/01/08 03:59:11;;;;;;;14.73;11.40;;;23.10;44.90;;;;;;6072118;28;84742;-67
2023/01/08 04:02:11;;;;;;;17.45;12.02;;;23.10;44.90;;;;;;6056941;28;83109;-63
2023/01/08 04:05:12;;;;;;;14.35;10.23;;;23.10;44.70;;;;;;6076344;28;83689;-65
2023/01/08 04:08:12;;;;;;;16.23;11.82;;;23.10;44.80;;;;;;6062069;28;87376;-67
2023/01/08 04:11:13;;;;;;;17.65;11.45;;;23.10;44.60;;;;;;6065227;28;84200;-68
2023/01/08 04:14:14;;;;;;;17.38;10.68;;;23.10;44.40;;;;;;6077233;28;83467;-67
2023/01/08 04:17:14;;;;;;;13.07;10.35;;;23.10;44.80;;;;;;6065209;28;83258;-65
2023/01/08 04:20:15;;;;;;;13.32;10.40;;;23.10;45.20;;;;;;6062729;28;85042;-58
2023/01/08 04:23:15;;;;;;;15.52;11.20;;;23.20;44.80;;;;;;6065116;28;87008;-60
2023/01/08 04:26:16;;;;;;;14.95;10.55;;;23.20;44.40;;;;;;6058761;28;85290;-60
2023/01/08 04:29:16;;;;;;;14.15;10.43;;;23.30;44.40;;;;;;6066390;28;83848;-59
2023/01/08 04:32:17;;;;;;;14.77;9.98;;;23.30;44.00;;;;;;6064303;28;83047;-60
2023/01/08 04:35:17;;;;;;;14.13;10.50;;;23.40;44.20;;;;;;6058800;28;83126;-60
2023/01/08 04:38:18;;;;;;;14.68;10.48;;;23.40;44.00;;;;;;6057324;28;83496;-69
2023/01/08 04:41:19;;;;;;;12.10;9.05;;;23.50;43.90;;;;;;6071543;28;83668;-68
2023/01/08 04:44:19;;;;;;;12.88;9.75;;;23.50;43.50;;;;;;6063178;28;83320;-70
2023/01/08 04:47:20;;;;;;;13.45;9.32;;;23.60;43.80;;;;;;6064616;28;80796;-69
2023/01/08 04:50:20;;;;;;;13.48;9.95;;;23.60;43.80;;;;;;6067292;28;81435;-69
2023/01/08 04:53:21;;;;;;;13.15;9.93;;;23.60;43.80;;;;;;6081005;28;83323;-68
2023/01/08 04:56:21;;;;;;;13.95;9.35;;;23.70;43.80;;;;;;6088021;28;80557;-55
2023/01/08 04:59:22;;;;;;;12.27;8.88;;;23.70;43.90;;;;;;6088777;28;82077;-57
2023/01/08 05:02:22;;;;;;;11.70;8.85;;;23.70;43.90;;;;;;6080651;28;82374;-59
2023/01/08 05:05:23;;;;;;;10.35;8.38;;;23.70;44.00;;;;;;6082051;28;81099;-57
2023/01/08 05:08:23;;;;;;;11.20;8.75;;;23.70;43.90;;;;;;6083770;28;80073;-57
2023/01/08 05:11:24;;;;;;;11.82;8.50;;;23.80;43.90;;;;;;6086128;28;81265;-57
2023/01/08 05:14:24;;;;;;;12.60;9.07;;;23.80;44.10;;;;;;6086344;28;80497;-56
2023/01/08 05:17:25;;;;;;;11.52;8.15;;;23.80;44.10;;;;;;6092752;28;85363;-55
2023/01/08 05:20:26;;;;;;;11.10;8.98;;;23.80;44.20;;;;;;6102947;28;80647;-49
2023/01/08 05:23:26;;;;;;;14.38;8.88;;;23.80;44.10;;;;;;6094814;28;80653;-51
2023/01/08 05:26:27;;;;;;;10.65;8.43;;;23.90;44.30;;;;;;6098431;28;81047;-51
2023/01/08 05:29:27;;;;;;;11.38;8.48;;;23.90;44.30;;;;;;6090953;28;85578;-54
2023/01/08 05:32:28;;;;;;;12.48;8.25;;;23.90;44.40;;;;;;6088846;28;82111;-57
2023/01/08 05:35:28;;;;;;;10.35;7.63;;;23.90;44.30;;;;;;6088517;28;81253;-70
2023/01/08 05:38:29;;;;;;;10.63;8.30;;;23.90;44.10;;;;;;6101649;28;80552;-75
2023/01/08 05:41:29;;;;;;;14.13;8.77;;;23.90;44.10;;;;;;6102348;28;81548;-68
2023/01/08 05:44:30;;;;;;;10.85;7.85;;;23.90;43.90;;;;;;6098749;28;81002;-70
2023/01/08 05:47:30;;;;;;;11.27;7.93;;;23.90;43.60;;;;;;6096249;28;80787;-65
2023/01/08 05:50:31;;;;;;;8.93;7.43;;;23.90;43.60;;;;;;6096517;28;80380;-66
2023/01/08 05:53:32;;;;;;;16.23;7.57;;;23.90;44.10;;;;;;6063223;28;80384;-66
2023/01/08 05:56:32;;;;;;;7.97;5.95;;;23.80;44.30;;;;;;6090958;28;81133;-65
2023/01/08 05:59:33;;;;;;;10.02;5.75;;;23.70;44.80;;;;;;6083407;28;81123;-63
2023/01/08 06:02:33;;;;;;;11.60;5.47;;;23.70;45.50;;;;;;6059975;28;81880;-66
2023/01/08 06:05:34;;;;;;;6.53;4.43;;;23.70;45.90;;;;;;6074296;28;82241;-66
2023/01/08 06:08:34;;;;;;;6.47;4.40;;;23.60;46.20;;;;;;6054958;28;80264;-65
2023/01/08 06:11:35;;;;;;;7.47;4.00;;;23.60;46.60;;;;;;6070994;28;80962;-59
2023/01/08 06:14:35;;;;;;;9.32;4.53;;;23.60;47.00;;;;;;6071480;28;82342;-59
2023/01/08 06:17:36;;;;;;;5.03;3.60;;;23.50;47.70;;;;;;6045169;28;81810;-58
2023/01/08 06:20:36;;;;;;;5.57;4.40;;;23.50;47.90;;;;;;6049584;28;81539;-58
2023/01/08 06:23:37;;;;;;;4.55;3.83;;;23.50;48.50;;;;;;6037655;28;81094;-59
2023/01/08 06:26:37;;;;;;;6.53;4.40;;;23.50;49.20;;;;;;6040841;28;80582;-59
2023/01/08 06:29:38;;;;;;;4.55;3.70;;;23.50;49.30;;;;;;6054753;28;80948;-56
2023/01/08 06:32:39;;;;;;;5.82;4.07;;;23.40;49.40;;;;;;6067926;28;81433;-54
2023/01/08 06:35:39;;;;;;;5.65;4.25;;;23.40;49.70;;;;;;6073159;28;80672;-52
2023/01/08 06:38:40;;;;;;;8.00;4.30;;;23.40;50.00;;;;;;6075857;28;80635;-54
2023/01/08 06:41:40;;;;;;;4.28;3.80;;;23.40;50.40;;;;;;6076547;28;81297;-53
2023/01/08 06:44:41;;;;;;;7.43;3.67;;;23.40;50.40;;;;;;6084207;28;80340;-52
2023/01/08 06:47:41;;;;;;;4.75;3.90;;;23.40;50.50;;;;;;6074106;28;81998;-53
2023/01/08 06:50:42;;;;;;;5.03;4.07;;;23.30;50.50;;;;;;6088937;28;83214;-55
2023/01/08 06:53:42;;;;;;;6.53;4.00;;;23.30;51.10;;;;;;6060630;28;80477;-50
2023/01/08 06:56:43;;;;;;;7.53;3.95;;;23.30;50.60;;;;;;6065853;28;81320;-56
2023/01/08 06:59:43;;;;;;;6.43;4.50;;;23.30;50.80;;;;;;6094495;28;80600;-51
2023/01/08 07:02:44;;;;;;;6.63;4.72;;;23.30;50.80;;;;;;6081937;28;80531;-52
2023/01/08 07:05:44;;;;;;;5.85;4.40;;;23.30;50.80;;;;;;6080762;28;80534;-53
2023/01/08 07:08:45;;;;;;;6.50;4.60;;;23.30;51.70;;;;;;6049544;28;80254;-51
2023/01/08 07:11:45;;;;;;;7.07;4.60;;;23.30;51.00;;;;;;6062224;28;83894;-53
2023/01/08 07:14:46;;;;;;;7.82;3.97;;;23.30;51.10;;;;;;6048950;28;82506;-52
2023/01/08 07:17:46;;;;;;;6.30;3.90;;;23.20;51.20;;;;;;6067138;28;80823;-52
2023/01/08 07:20:47;;;;;;;8.07;4.35;;;23.30;51.10;;;;;;6064027;28;80969;-48
2023/01/08 07:23:47;;;;;;;5.50;4.32;;;23.30;51.40;;;;;;6051939;28;82305;-51
2023/01/08 07:26:48;;;;;;;5.95;4.15;;;23.30;51.20;;;;;;6038889;28;80334;-53
2023/01/08 07:29:48;;;;;;;5.65;4.13;;;23.30;51.20;;;;;;6064861;28;82605;-52
2023/01/08 07:32:49;;;;;;;5.88;4.28;;;23.30;51.10;;;;;;6053708;28;81267;-58
2023/01/08 07:35:49;;;;;;;8.02;4.50;;;23.30;51.00;;;;;;6061002;28;83031;-56
2023/01/08 07:38:50;;;;;;;6.18;4.40;;;23.40;50.90;;;;;;6067661;28;81060;-50
2023/01/08 07:41:51;;;;;;;6.05;4.20;;;23.30;50.80;;;;;;6069804;28;80997;-65
2023/01/08 07:44:51;;;;;;;5.50;3.97;;;23.40;50.60;;;;;;6081471;28;80633;-73
2023/01/08 07:47:52;;;;;;;9.07;4.80;;;23.40;51.00;;;;;;6067926;28;80783;-62
2023/01/08 07:50:53;;;;;;;10.05;5.22;;;23.40;51.00;;;;;;6070434;28;86671;-62
2023/01/08 07:53:55;;;;;;;7.72;5.00;;;23.40;51.40;;;;;;6070831;28;81209;-63
2023/01/08 07:56:55;;;;;;;6.18;4.28;;;23.30;51.40;;;;;;6067389;28;81867;-71
2023/01/08 07:59:56;;;;;;;6.32;4.88;;;23.30;51.50;;;;;;6063056;28;80909;-61
2023/01/08 08:02:56;;;;;;;7.78;5.13;;;23.20;52.20;;;;;;6063989;28;83752;-61
2023/01/08 08:05:57;;;;;;;8.02;5.53;;;23.20;52.30;;;;;;6048487;28;84003;-61
2023/01/08 08:08:58;;;;;;;10.52;6.88;;;23.30;52.40;;;;;;6040604;28;80908;-61
2023/01/08 08:11:59;;;;;;;14.27;7.85;;;23.40;52.60;;;;;;6051152;28;82854;-62
2023/01/08 08:14:59;;;;;;;12.40;7.90;;;23.40;52.80;;;;;;6040610;28;81365;-61
2023/01/08 08:18:00;;;;;;;10.80;7.25;;;23.40;53.40;;;;;;6029619;28;80785;-69
2023/01/08 08:21:01;;;;;;;11.80;6.65;;;23.30;54.10;;;;;;6042313;28;83502;-73
2023/01/08 08:24:01;;;;;;;11.65;7.30;;;23.50;54.40;;;;;;6038982;28;81349;-69
2023/01/08 08:27:02;;;;;;;8.90;6.30;;;23.50;54.60;;;;;;6057466;28;82910;-73
2023/01/08 08:30:02;;;;;;;10.57;6.25;;;23.50;55.90;;;;;;6077425;28;84081;-68
2023/01/08 08:33:03;;;;;;;8.45;5.75;;;23.60;55.10;;;;;;6062450;28;80648;-66
2023/01/08 08:36:03;;;;;;;9.77;5.38;;;23.70;55.00;;;;;;6058216;28;80897;-65
2023/01/08 08:39:04;;;;;;;7.07;5.57;;;23.80;55.40;;;;;;6074040;28;80430;-64
2023/01/08 08:42:04;;;;;;;7.78;5.78;;;23.80;55.50;;;;;;6068410;28;82392;-70
2023/01/08 08:45:05;;;;;;;7.70;5.22;;;24.00;55.70;;;;;;6069827;28;80923;-70
2023/01/08 08:48:05;;;;;;;8.10;4.97;;;24.10;56.00;;;;;;6067288;28;80954;-67
2023/01/08 08:51:06;;;;;;;5.85;4.47;;;24.10;55.50;;;;;;6051800;28;84520;-64
2023/01/08 08:54:06;;;;;;;6.82;4.95;;;24.20;55.20;;;;;;6058703;28;80639;-73
2023/01/08 08:57:08;;;;;;;6.47;4.75;;;24.30;55.70;;;;;;6060083;28;81257;-66
2023/01/08 09:00:08;;;;;;;11.00;7.35;;;24.30;54.40;;;;;;6054299;28;80776;-66
2023/01/08 09:03:09;;;;;;;13.93;10.70;;;24.30;50.60;;;;;;6073923;28;83557;-64
2023/01/08 09:06:09;;;;;;;13.32;9.88;;;24.00;45.60;;;;;;6071313;28;83171;-66
2023/01/08 09:09:10;;;;;;;14.65;11.32;;;23.70;44.20;;;;;;6060375;28;83278;-64
2023/01/08 09:12:10;;;;;;;16.90;11.40;;;23.50;43.30;;;;;;6059970;28;82947;-69
2023/01/08 09:15:11;;;;;;;16.58;11.43;;;23.30;42.60;;;;;;6073569;28;84721;-69
2023/01/08 09:18:11;;;;;;;12.32;10.13;;;23.10;42.50;;;;;;6071350;28;88361;-71
2023/01/08 09:21:12;;;;;;;14.52;10.63;;;23.10;42.80;;;;;;6040131;28;82966;-70
2023/01/08 09:24:12;;;;;;;14.50;11.13;;;23.10;42.70;;;;;;6060335;28;84528;-68
2023/01/08 09:27:13;;;;;;;11.77;9.30;;;23.00;41.20;;;;;;6060007;28;84260;-68
2023/01/08 09:30:13;;;;;;;11.02;8.15;;;22.90;41.80;;;;;;6055758;28;82949;-65
2023/01/08 09:33:14;;;;;;;8.35;7.20;;;23.00;44.00;;;;;;6058643;28;82512;-63
2023/01/08 09:36:14;;;;;;;58.67;31.27;;;23.20;45.10;;;;;;6090209;28;86064;-69
2023/01/08 09:39:15;;;;;;;112.85;61.85;;;23.40;46.00;;;;;;6070834;28;83324;-64
2023/01/08 09:42:15;;;;;;;140.25;73.57;;;23.50;45.80;;;;;;6067477;28;83187;-67
2023/01/08 09:45:16;;;;;;;95.50;50.10;;;23.60;45.60;;;;;;6088433;28;85443;-66
2023/01/08 09:48:17;;;;;;;155.80;81.93;;;23.70;44.80;;;;;;6062960;28;82992;-63
2023/01/08 09:51:17;;;;;;;201.50;101.40;;;23.70;44.30;;;;;;6067397;28;83964;-56
2023/01/08 09:54:18;;;;;;;248.73;124.35;;;23.70;44.50;;;;;;6062510;28;85847;-64
2023/01/08 09:57:18;;;;;;;166.18;84.85;;;23.80;44.70;;;;;;6064076;28;86688;-60
2023/01/08 10:00:19;;;;;;;132.10;72.32;;;23.70;44.90;;;;;;6067481;28;84186;-61
2023/01/08 10:03:19;;;;;;;153.07;77.28;;;23.70;44.20;;;;;;6071717;28;83270;-61
2023/01/08 10:06:21;;;;;;;131.63;65.68;;;23.70;43.80;;;;;;6069514;28;83550;-59
2023/01/08 10:09:22;;;;;;;172.80;90.13;;;23.70;43.50;;;;;;6068340;28;83334;-70
2023/01/08 10:12:22;;;;;;;164.88;83.80;;;23.70;43.50;;;;;;6069593;28;84157;-70
2023/01/08 10:15:23;;;;;;;164.15;86.55;;;23.70;43.50;;;;;;6061834;28;83702;-67
2023/01/08 10:18:23;;;;;;;171.18;86.00;;;23.70;43.10;;;;;;6084344;28;83293;-69
2023/01/08 10:21:24;;;;;;;126.55;60.92;;;23.70;42.60;;;;;;6086420;28;86076;-69
2023/01/08 10:24:24;;;;;;;94.88;45.72;;;23.70;42.50;;;;;;6079783;28;83550;-68
2023/01/08 10:27:25;;;;;;;70.38;36.03;;;23.70;42.40;;;;;;6074118;28;85181;-67
2023/01/08 10:30:25;;;;;;;55.55;27.15;;;23.70;42.40;;;;;;6060567;28;84009;-67
2023/01/08 10:33:26;;;;;;;36.72;21.85;;;23.70;42.10;;;;;;6068167;28;84017;-69
2023/01/08 10:36:26;;;;;;;33.95;20.00;;;23.70;42.00;;;;;;6064166;28;83144;-69
2023/01/08 10:39:27;;;;;;;28.80;16.42;;;23.70;42.00;;;;;;6061038;28;83876;-67
2023/01/08 10:42:28;;;;;;;24.95;14.85;;;23.80;41.90;;;;;;6074664;28;88181;-69
2023/01/08 10:45:28;;;;;;;22.95;13.43;;;23.80;42.00;;;;;;6051922;28;86956;-66
2023/01/08 10:48:29;;;;;;;23.38;12.70;;;23.90;42.60;;;;;;6074266;28;83426;-63
2023/01/08 10:51:29;;;;;;;18.30;11.10;;;24.00;43.40;;;;;;6027995;28;86215;-61
2023/01/08 10:54:30;;;;;;;18.35;11.57;;;24.10;43.90;;;;;;6054599;28;83420;-71
2023/01/08 10:57:31;;;;;;;13.85;9.88;;;24.10;43.70;;;;;;6064205;28;83679;-71
2023/01/08 11:00:32;;;;;;;16.73;9.70;;;24.10;44.30;;;;;;6072799;28;81641;-71
2023/01/08 11:03:32;;;;;;;16.20;9.05;;;24.10;44.70;;;;;;6059990;28;80652;-61
2023/01/08 11:06:33;;;;;;;16.52;10.00;;;24.20;45.10;;;;;;6068095;28;83513;-63
2023/01/08 11:09:33;;;;;;;13.00;9.23;;;24.20;45.60;;;;;;6075317;28;83282;-64
2023/01/08 11:12:34;;;;;;;13.77;8.80;;;24.30;46.00;;;;;;6070467;28;84531;-65
2023/01/08 11:15:35;;;;;;;11.85;8.18;;;24.30;46.20;;;;;;6059035;28;84043;-67
2023/01/08 11:18:35;;;;;;;13.45;8.18;;;24.40;47.00;;;;;;6068767;28;80672;-64
2023/01/08 11:21:36;;;;;;;9.77;7.18;;;24.40;47.00;;;;;;6054752;28;82816;-62
2023/01/08 11:24:36;;;;;;;10.90;7.72;;;24.40;47.00;;;;;;6071367;28;81346;-59
2023/01/08 11:27:37;;;;;;;9.07;6.97;;;24.40;47.10;;;;;;6061532;28;80901;-58
2023/01/08 11:30:37;;;;;;;12.13;8.40;;;24.40;47.30;;;;;;6062690;28;83069;-57
2023/01/08 11:33:38;;;;;;;9.65;7.45;;;24.40;47.20;;;;;;6071590;28;81499;-57
2023/01/08 11:36:38;;;;;;;10.93;7.88;;;24.40;47.00;;;;;;6079384;28;84759;-59
2023/01/08 11:39:39;;;;;;;8.25;6.25;;;24.50;47.10;;;;;;6076612;28;82295;-59
2023/01/08 11:42:39;;;;;;;8.65;6.05;;;24.60;47.30;;;;;;6062349;28;80271;-70
2023/01/08 11:45:40;;;;;;;10.95;7.43;;;24.60;46.80;;;;;;6061881;28;81650;-63
2023/01/08 11:48:40;;;;;;;9.40;7.13;;;24.70;46.50;;;;;;6073574;28;81146;-63
2023/01/08 11:51:41;;;;;;;9.27;6.43;;;24.70;46.30;;;;;;6053761;28;81945;-63
2023/01/08 11:54:41;;;;;;;10.02;7.18;;;24.80;46.40;;;;;;6073441;28;83554;-62
2023/01/08 11:57:42;;;;;;;9.95;6.72;;;24.90;46.40;;;;;;6064716;28;84878;-60
2023/01/08 12:00:43;;;;;;;7.85;6.25;;;25.00;46.90;;;;;;6066982;28;80753;-57
2023/01/08 12:03:44;;;;;;;9.38;6.40;;;25.10;47.00;;;;;;6059700;28;82536;-58
2023/01/08 12:06:45;;;;;;;8.48;6.38;;;25.10;47.50;;;;;;6038827;28;81798;-58
2023/01/08 12:09:45;;;;;;;8.15;6.32;;;25.20;47.50;;;;;;6058889;28;81265;-60
2023/01/08 12:12:46;;;;;;;11.75;6.97;;;25.30;47.10;;;;;;6064313;28;80974;-58
2023/01/08 12:15:46;;;;;;;9.25;6.90;;;25.30;46.80;;;;;;6068922;28;81919;-60
2023/01/08 12:18:47;;;;;;;12.25;8.07;;;25.30;46.40;;;;;;6064226;28;81321;-63
2023/01/08 12:21:47;;;;;;;8.93;6.55;;;25.40;45.90;;;;;;6065184;28;86022;-61
2023/01/08 12:24:48;;;;;;;8.73;6.03;;;25.40;46.90;;;;;;6078499;28;82974;-62
2023/01/08 12:27:48;;;;;;;7.40;5.53;;;25.50;47.10;;;;;;6061692;28;81518;-63
2023/01/08 12:30:50;;;;;;;9.13;5.95;;;25.50;46.50;;;;;;6054872;28;82397;-62
2023/01/08 12:33:50;;;;;;;7.90;6.32;;;25.40;46.90;;;;;;6058671;28;81053;-61
2023/01/08 12:36:51;;;;;;;6.82;5.50;;;25.30;46.50;;;;;;6056042;28;80587;-62
2023/01/08 12:39:51;;;;;;;7.40;6.32;;;25.30;46.30;;;;;;6060949;28;83919;-64
2023/01/08 12:42:52;;;;;;;7.90;6.25;;;25.30;46.00;;;;;;6079287;28;81846;-64
2023/01/08 12:45:53;;;;;;;6.80;5.25;;;25.30;45.40;;;;;;6057535;28;81007;-60
2023/01/08 12:48:53;;;;;;;7.43;6.05;;;25.30;45.60;;;;;;6051534;28;81251;-64
2023/01/08 12:51:54;;;;;;;6.97;5.38;;;25.20;45.70;;;;;;6074989;28;83658;-62
2023/01/08 12:54:55;;;;;;;6.93;5.40;;;25.20;46.20;;;;;;6053190;28;84448;-59
2023/01/08 12:57:55;;;;;;;7.22;5.35;;;25.10;46.40;;;;;;6049850;28;81593;-58
2023/01/08 13:00:56;;;;;;;7.50;5.97;;;25.00;46.30;;;;;;6047912;28;84074;-65
2023/01/08 13:03:57;;;;;;;8.65;6.15;;;25.00;46.40;;;;;;6051180;28;82062;-67
2023/01/08 13:06:57;;;;;;;8.75;6.05;;;24.90;45.70;;;;;;6077571;28;83744;-69
2023/01/08 13:09:58;;;;;;;7.25;5.80;;;24.90;46.30;;;;;;6063305;28;81259;-66
2023/01/08 13:13:00;;;;;;;8.40;6.63;;;24.90;45.90;;;;;;6064674;28;80839;-59
2023/01/08 13:16:01;;;;;;;6.07;5.20;;;24.90;45.60;;;;;;6066131;28;81351;-65
2023/01/08 13:19:01;;;;;;;8.90;6.05;;;25.00;45.80;;;;;;6074040;28;83956;-59
2023/01/08 13:22:02;;;;;;;10.10;7.53;;;25.00;46.10;;;;;;6076944;28;81474;-59
2023/01/08 13:25:02;;;;;;;7.88;6.30;;;25.00;46.50;;;;;;6063490;28;80818;-64
2023/01/08 13:28:03;;;;;;;11.13;7.05;;;25.00;45.90;;;;;;6071091;28;84135;-57
2023/01/08 13:31:03;;;;;;;11.27;6.82;;;25.10;45.90;;;;;;6072871;28;80829;-56
2023/01/08 13:34:04;;;;;;;9.40;6.82;;;25.10;46.30;;;;;;6074383;28;81806;-59
2023/01/08 13:37:05;;;;;;;10.80;7.15;;;25.10;46.60;;;;;;6073571;28;80634;-59
2023/01/08 13:40:05;;;;;;;8.38;6.93;;;25.10;46.40;;;;;;6071507;28;80294;-58
2023/01/08 13:43:06;;;;;;;11.13;6.57;;;25.10;46.20;;;;;;6074003;28;82025;-57
2023/01/08 13:46:07;;;;;;;7.63;5.93;;;25.10;46.60;;;;;;6075071;28;82557;-59
2023/01/08 13:49:07;;;;;;;9.93;6.80;;;25.10;46.50;;;;;;6078475;28;81127;-65
2023/01/08 13:52:08;;;;;;;8.00;6.28;;;25.10;46.30;;;;;;6063955;28;80525;-66
2023/01/08 13:55:08;;;;;;;9.82;7.13;;;25.10;46.80;;;;;;6055285;28;80571;-66
2023/01/08 13:58:09;;;;;;;8.38;6.70;;;25.10;46.60;;;;;;6075644;28;80389;-64
2023/01/08 14:01:09;;;;;;;7.70;6.40;;;25.10;46.40;;;;;;6081507;28;81481;-65
2023/01/08 14:04:10;;;;;;;8.40;6.75;;;25.00;46.40;;;;;;6071343;28;80673;-64
2023/01/08 14:07:10;;;;;;;8.40;6.90;;;25.00;46.50;;;;;;6069784;28;81513;-58
2023/01/08 14:10:11;;;;;;;7.97;6.00;;;24.90;46.80;;;;;;6077062;28;81118;-59
2023/01/08 14:13:11;;;;;;;7.53;5.68;;;24.90;46.70;;;;;;6067123;28;80965;-58
2023/01/08 14:16:12;;;;;;;7.95;5.50;;;24.90;47.20;;;;;;6073443;28;82290;-59
2023/01/08 14:19:12;;;;;;;7.68;5.63;;;24.80;47.40;;;;;;6062073;28;80536;-59
2023/01/08 14:22:13;;;;;;;7.95;5.45;;;24.70;47.60;;;;;;6054332;28;81356;-59
2023/01/08 14:25:14;;;;;;;7.35;5.28;;;24.70;48.00;;;;;;6075385;28;82873;-61
2023/01/08 14:28:14;;;;;;;9.40;5.55;;;24.60;48.20;;;;;;6076127;28;81442;-62
2023/01/08 14:31:15;;;;;;;7.13;5.20;;;24.60;48.20;;;;;;6037764;28;82190;-62
2023/01/08 14:34:15;;;;;;;8.30;6.07;;;24.50;48.90;;;;;;6057222;28;81092;-63
2023/01/08 14:37:16;;;;;;;7.60;5.60;;;24.50;48.90;;;;;;6060679;28;84167;-64
2023/01/08 14:40:16;;;;;;;10.43;6.38;;;24.40;48.20;;;;;;6072808;28;82737;-63
2023/01/08 14:43:17;;;;;;;9.57;6.25;;;24.40;48.70;;;;;;6087306;28;80348;-61
2023/01/08 14:46:17;;;;;;;8.80;6.07;;;24.30;48.40;;;;;;6059717;28;84256;-67
2023/01/08 14:49:18;;;;;;;8.30;5.65;;;24.30;48.80;;;;;;6052682;28;80595;-64
2023/01/08 14:52:20;;;;;;;7.95;5.90;;;24.30;49.00;;;;;;6046325;28;80538;-62
2023/01/08 14:55:20;;;;;;;9.30;5.68;;;24.20;49.10;;;;;;6040077;28;81128;-67
2023/01/08 14:58:21;;;;;;;8.13;5.38;;;24.10;49.30;;;;;;6040724;28;80727;-65
2023/01/08 15:01:21;;;;;;;8.50;6.43;;;24.10;49.20;;;;;;6043437;28;85259;-65
2023/01/08 15:04:22;;;;;;;7.78;5.68;;;24.10;49.50;;;;;;6045816;28;85490;-63
2023/01/08 15:07:22;;;;;;;9.65;7.05;;;24.10;49.10;;;;;;6072171;28;81818;-64
2023/01/08 15:10:23;;;;;;;9.15;6.45;;;24.00;49.10;;;;;;6070971;28;80404;-65
2023/01/08 15:13:24;;;;;;;7.90;5.93;;;24.00;48.90;;;;;;6061354;28;82839;-69
2023/01/08 15:16:24;;;;;;;7.90;6.00;;;24.00;49.20;;;;;;6085090;28;81605;-69
2023/01/08 15:19:25;;;;;;;10.88;5.72;;;24.00;49.40;;;;;;6095021;28;81545;-68
2023/01/08 15:22:25;;;;;;;7.72;5.55;;;24.00;49.60;;;;;;6103619;28;80812;-66
2023/01/08 15:25:27;;;;;;;6.80;5.07;;;24.00;50.00;;;;;;6102045;28;81662;-64